Pagrindinis puslapis
METAR-TAF:

METAR-TAF

Oro uostai :

Igdyras, Turkija

platuma: 39-58-36N, ilguma: 43-52-36E, Aukštis: 945 m

Dabartinis oras

Ataskaita buvo paskelbta 8 valandos ir 46 minutes, ne 14:50 UTC
Vėjas 6 kt iš Rytų
Temperatūra 16°C
Drėgmė 45%
Slėgis 1020 hPa
Matomumas 10 km arba daugiau
Mažai debesys ne aukštis 4000 ft
Su prošvaistėmis ne aukštis 10000 ft

METAR: LTCT 051450Z 09006KT 9999 FEW040 BKN100 16/04 Q1020

Laikas: 02:36 (23:36 UTC)

Prognozė

Ataskaita buvo paskelbta 3 valandos ir 56 minutes, ne 19:40 UTC
Prognozė galioja nuo 05 metu 21 UTC su 06 metu 06 UTC
Vėjas 8 kt iš Pietvakarių
Matomumas 10 km arba daugiau
Išsisklaidę debesys ne aukštis 4000 ft
Su prošvaistėmis ne aukštis 8000 ft

TAF: LTCT 051940Z 0521/0606 22008KT 9999 SCT040 BKN080

Orai ataskaitas ir orų prognozės (METAR, TAF).

turimą stotys yra geltonos ir raudonos taškus žemėlapyje.

Perkelti pele per norėdami pamatyti stoties vardą.

Tada spustelėkite, norėdami matyti oro stebėjimo ir prognozės.

Norėdami pakeisti žemėlapį: spustelėkite ant žalios mygtukų su juodo kryžiaus žemyn,; žalią mygtuką su brūkšneliu, jei norite nutolinti; arba žalių rodyklių gretimoms žemėlapius.


METAR-TAF: